sensor_id;sensor_type;location;lat;lon;timestamp;pressure;altitude;pressure_sealevel;temperature
24278;BMP280;12394;42.692;23.314;2022-11-02T00:01:45;95674.72;;;12.51
24278;BMP280;12394;42.692;23.314;2022-11-02T00:04:10;95645.16;;;12.29
24278;BMP280;12394;42.692;23.314;2022-11-02T00:06:36;95664.63;;;12.38
24278;BMP280;12394;42.692;23.314;2022-11-02T00:09:02;95671.72;;;12.41
24278;BMP280;12394;42.692;23.314;2022-11-02T00:11:27;95669.88;;;12.38
24278;BMP280;12394;42.692;23.314;2022-11-02T00:13:52;95675.50;;;12.33
24278;BMP280;12394;42.692;23.314;2022-11-02T00:16:19;95677.00;;;12.34
24278;BMP280;12394;42.692;23.314;2022-11-02T00:18:47;95669.88;;;12.31
24278;BMP280;12394;42.692;23.314;2022-11-02T00:21:15;95669.53;;;12.29
24278;BMP280;12394;42.692;23.314;2022-11-02T00:23:42;95669.50;;;12.33
24278;BMP280;12394;42.692;23.314;2022-11-02T00:26:08;95672.13;;;12.33
24278;BMP280;12394;42.692;23.314;2022-11-02T00:28:34;95654.94;;;12.21
24278;BMP280;12394;42.692;23.314;2022-11-02T00:30:59;95666.16;;;12.29
24278;BMP280;12394;42.692;23.314;2022-11-02T00:33:25;95664.28;;;12.29
24278;BMP280;12394;42.692;23.314;2022-11-02T00:35:50;95651.56;;;12.21
24278;BMP280;12394;42.692;23.314;2022-11-02T00:38:16;95660.91;;;12.25
24278;BMP280;12394;42.692;23.314;2022-11-02T00:40:42;95650.41;;;12.18
24278;BMP280;12394;42.692;23.314;2022-11-02T00:43:07;95654.19;;;12.21
24278;BMP280;12394;42.692;23.314;2022-11-02T00:45:32;95660.19;;;12.21
24278;BMP280;12394;42.692;23.314;2022-11-02T00:47:58;95654.19;;;12.17
24278;BMP280;12394;42.692;23.314;2022-11-02T00:50:23;95657.94;;;12.16
24278;BMP280;12394;42.692;23.314;2022-11-02T00:52:49;95656.06;;;12.13
24278;BMP280;12394;42.692;23.314;2022-11-02T00:55:14;95664.31;;;12.15
24278;BMP280;12394;42.692;23.314;2022-11-02T00:57:42;95658.66;;;12.13
24278;BMP280;12394;42.692;23.314;2022-11-02T01:00:09;95657.94;;;12.09
24278;BMP280;12394;42.692;23.314;2022-11-02T01:02:35;95663.19;;;12.09
24278;BMP280;12394;42.692;23.314;2022-11-02T01:05:01;95651.94;;;12.05
24278;BMP280;12394;42.692;23.314;2022-11-02T01:07:27;95658.72;;;11.99
24278;BMP280;12394;42.692;23.314;2022-11-02T01:09:52;95666.94;;;11.97
24278;BMP280;12394;42.692;23.314;2022-11-02T01:12:18;95650.09;;;11.84
24278;BMP280;12394;42.692;23.314;2022-11-02T01:14:47;95675.19;;;11.96
24278;BMP280;12394;42.692;23.314;2022-11-02T01:17:14;95655.72;;;11.86
24278;BMP280;12394;42.692;23.314;2022-11-02T01:19:39;95663.59;;;11.83
24278;BMP280;12394;42.692;23.314;2022-11-02T01:22:05;95646.72;;;11.66
24278;BMP280;12394;42.692;23.314;2022-11-02T01:24:30;95662.47;;;11.73
24278;BMP280;12394;42.692;23.314;2022-11-02T01:26:56;95660.19;;;11.72
24278;BMP280;12394;42.692;23.314;2022-11-02T01:29:21;95667.69;;;11.70
24278;BMP280;12394;42.692;23.314;2022-11-02T01:31:46;95657.94;;;11.67
24278;BMP280;12394;42.692;23.314;2022-11-02T01:34:13;95656.44;;;11.66
24278;BMP280;12394;42.692;23.314;2022-11-02T01:36:38;95649.72;;;11.57
24278;BMP280;12394;42.692;23.314;2022-11-02T01:39:04;95645.94;;;11.55
24278;BMP280;12394;42.692;23.314;2022-11-02T01:41:29;95647.44;;;11.63
24278;BMP280;12394;42.692;23.314;2022-11-02T01:43:56;95644.47;;;11.65
24278;BMP280;12394;42.692;23.314;2022-11-02T01:46:35;95641.09;;;11.60
24278;BMP280;12394;42.692;23.314;2022-11-02T01:49:06;95628.00;;;11.53
24278;BMP280;12394;42.692;23.314;2022-11-02T01:51:43;95642.97;;;11.56
24278;BMP280;12394;42.692;23.314;2022-11-02T01:54:15;95641.84;;;11.61
24278;BMP280;12394;42.692;23.314;2022-11-02T01:56:53;95642.59;;;11.62
24278;BMP280;12394;42.692;23.314;2022-11-02T01:59:26;95631.72;;;11.59
24278;BMP280;12394;42.692;23.314;2022-11-02T02:01:53;95639.59;;;11.63
24278;BMP280;12394;42.692;23.314;2022-11-02T02:04:19;95642.19;;;11.63
24278;BMP280;12394;42.692;23.314;2022-11-02T02:06:45;95622.38;;;11.55
24278;BMP280;12394;42.692;23.314;2022-11-02T02:09:11;95628.72;;;11.54
24278;BMP280;12394;42.692;23.314;2022-11-02T02:11:39;95643.72;;;11.60
24278;BMP280;12394;42.692;23.314;2022-11-02T02:34:19;95623.88;;;11.38
24278;BMP280;12394;42.692;23.314;2022-11-02T02:36:50;95617.50;;;11.36
24278;BMP280;12394;42.692;23.314;2022-11-02T02:42:09;95621.22;;;11.31
24278;BMP280;12394;42.692;23.314;2022-11-02T02:44:39;95634.34;;;11.38
24278;BMP280;12394;42.692;23.314;2022-11-02T02:47:16;95636.22;;;11.38
24278;BMP280;12394;42.692;23.314;2022-11-02T02:49:54;95633.97;;;11.36
24278;BMP280;12394;42.692;23.314;2022-11-02T02:52:22;95634.72;;;11.37
24278;BMP280;12394;42.692;23.314;2022-11-02T02:54:50;95625.75;;;11.34
24278;BMP280;12394;42.692;23.314;2022-11-02T02:57:18;95634.34;;;11.35
24278;BMP280;12394;42.692;23.314;2022-11-02T02:59:46;95630.22;;;11.30
24278;BMP280;12394;42.692;23.314;2022-11-02T03:04:42;95613.75;;;11.12
24278;BMP280;12394;42.692;23.314;2022-11-02T03:07:11;95635.81;;;11.18
24278;BMP280;12394;42.692;23.314;2022-11-02T03:10:05;95635.81;;;11.11
24278;BMP280;12394;42.692;23.314;2022-11-02T03:15:52;95639.50;;;10.99
24278;BMP280;12394;42.692;23.314;2022-11-02T03:23:46;95631.59;;;10.78
24278;BMP280;12394;42.692;23.314;2022-11-02T03:26:35;95642.13;;;10.85
24278;BMP280;12394;42.692;23.314;2022-11-02T03:29:17;95639.50;;;10.85
24278;BMP280;12394;42.692;23.314;2022-11-02T03:32:03;95624.50;;;10.79
24278;BMP280;12394;42.692;23.314;2022-11-02T03:34:43;95644.34;;;10.87
24278;BMP280;12394;42.692;23.314;2022-11-02T03:37:14;95624.84;;;10.70
24278;BMP280;12394;42.692;23.314;2022-11-02T03:39:51;95642.06;;;10.71
24278;BMP280;12394;42.692;23.314;2022-11-02T03:42:20;95632.69;;;10.66
24278;BMP280;12394;42.692;23.314;2022-11-02T03:44:49;95639.06;;;10.73
24278;BMP280;12394;42.692;23.314;2022-11-02T03:47:19;95640.19;;;10.72
24278;BMP280;12394;42.692;23.314;2022-11-02T03:49:45;95630.81;;;10.63
24278;BMP280;12394;42.692;23.314;2022-11-02T03:52:16;95638.69;;;10.70
24278;BMP280;12394;42.692;23.314;2022-11-02T03:55:01;95639.41;;;10.67
24278;BMP280;12394;42.692;23.314;2022-11-02T03:57:35;95634.56;;;10.69
24278;BMP280;12394;42.692;23.314;2022-11-02T04:00:09;95639.81;;;10.69
24278;BMP280;12394;42.692;23.314;2022-11-02T04:02:36;95635.31;;;10.70
24278;BMP280;12394;42.692;23.314;2022-11-02T04:05:03;95628.22;;;10.67
24278;BMP280;12394;42.692;23.314;2022-11-02T04:07:32;95631.94;;;10.69
24278;BMP280;12394;42.692;23.314;2022-11-02T04:10:19;95625.97;;;10.69
24278;BMP280;12394;42.692;23.314;2022-11-02T04:12:44;95625.56;;;10.63
24278;BMP280;12394;42.692;23.314;2022-11-02T04:15:28;95631.56;;;10.64
24278;BMP280;12394;42.692;23.314;2022-11-02T04:17:53;95633.81;;;10.65
24278;BMP280;12394;42.692;23.314;2022-11-02T04:20:37;95626.72;;;10.62
24278;BMP280;12394;42.692;23.314;2022-11-02T04:23:03;95624.03;;;10.48
24278;BMP280;12394;42.692;23.314;2022-11-02T04:25:52;95642.38;;;10.55
24278;BMP280;12394;42.692;23.314;2022-11-02T04:28:17;95621.03;;;10.46
24278;BMP280;12394;42.692;23.314;2022-11-02T04:30:43;95637.88;;;10.59
24278;BMP280;12394;42.692;23.314;2022-11-02T04:33:08;95633.75;;;10.55
24278;BMP280;12394;42.692;23.314;2022-11-02T04:35:52;95639.75;;;10.55
24278;BMP280;12394;42.692;23.314;2022-11-02T04:38:17;95639.75;;;10.55
24278;BMP280;12394;42.692;23.314;2022-11-02T04:41:01;95641.25;;;10.53
24278;BMP280;12394;42.692;23.314;2022-11-02T04:43:45;95641.25;;;10.53
24278;BMP280;12394;42.692;23.314;2022-11-02T04:46:10;95643.47;;;10.54
24278;BMP280;12394;42.692;23.314;2022-11-02T04:48:36;95640.84;;;10.54
24278;BMP280;12394;42.692;23.314;2022-11-02T04:51:01;95636.75;;;10.53
24278;BMP280;12394;42.692;23.314;2022-11-02T04:53:26;95643.47;;;10.54
24278;BMP280;12394;42.692;23.314;2022-11-02T04:55:52;95634.50;;;10.52
24278;BMP280;12394;42.692;23.314;2022-11-02T04:58:17;95627.75;;;10.47
24278;BMP280;12394;42.692;23.314;2022-11-02T05:00:42;95635.25;;;10.56
24278;BMP280;12394;42.692;23.314;2022-11-02T05:03:08;95640.09;;;10.54
24278;BMP280;12394;42.692;23.314;2022-11-02T05:05:33;95647.94;;;10.54
24278;BMP280;12394;42.692;23.314;2022-11-02T05:07:58;95647.94;;;10.54
24278;BMP280;12394;42.692;23.314;2022-11-02T05:10:24;95641.25;;;10.53
24278;BMP280;12394;42.692;23.314;2022-11-02T05:12:58;95651.72;;;10.56
24278;BMP280;12394;42.692;23.314;2022-11-02T05:15:24;95648.00;;;10.57
24278;BMP280;12394;42.692;23.314;2022-11-02T05:17:49;95648.34;;;10.59
24278;BMP280;12394;42.692;23.314;2022-11-02T05:20:15;95653.59;;;10.56
24278;BMP280;12394;42.692;23.314;2022-11-02T05:22:41;95661.44;;;10.59
24278;BMP280;12394;42.692;23.314;2022-11-02T05:25:07;95667.06;;;10.61
24278;BMP280;12394;42.692;23.314;2022-11-02T05:27:33;95663.69;;;10.64
24278;BMP280;12394;42.692;23.314;2022-11-02T05:29:58;95675.69;;;10.69
24278;BMP280;12394;42.692;23.314;2022-11-02T05:32:24;95676.44;;;10.73
24278;BMP280;12394;42.692;23.314;2022-11-02T05:34:50;95673.84;;;10.77
24278;BMP280;12394;42.692;23.314;2022-11-02T05:37:16;95670.16;;;10.85
24278;BMP280;12394;42.692;23.314;2022-11-02T05:39:41;95678.41;;;10.94
24278;BMP280;12394;42.692;23.314;2022-11-02T05:42:07;95672.81;;;11.06
24278;BMP280;12394;42.692;23.314;2022-11-02T05:44:32;95664.63;;;11.11
24278;BMP280;12394;42.692;23.314;2022-11-02T05:46:58;95680.75;;;11.31
24278;BMP280;12394;42.692;23.314;2022-11-02T05:49:23;95693.50;;;11.46
24278;BMP280;12394;42.692;23.314;2022-11-02T05:51:48;95696.88;;;11.61
24278;BMP280;12394;42.692;23.314;2022-11-02T05:54:14;95703.66;;;11.80
24278;BMP280;12394;42.692;23.314;2022-11-02T05:56:39;95696.53;;;12.01
24278;BMP280;12394;42.692;23.314;2022-11-02T05:59:06;95698.34;;;12.36
24278;BMP280;12394;42.692;23.314;2022-11-02T06:01:31;95693.78;;;12.69
24278;BMP280;12394;42.692;23.314;2022-11-02T06:03:56;95708.72;;;12.93
24278;BMP280;12394;42.692;23.314;2022-11-02T06:06:22;95691.34;;;13.20
24278;BMP280;12394;42.692;23.314;2022-11-02T06:08:47;95710.94;;;13.71
24278;BMP280;12394;42.692;23.314;2022-11-02T06:11:13;95702.41;;;14.04
24278;BMP280;12394;42.692;23.314;2022-11-02T06:13:39;95700.06;;;14.58
24278;BMP280;12394;42.692;23.314;2022-11-02T06:16:06;95697.56;;;15.11
24278;BMP280;12394;42.692;23.314;2022-11-02T06:18:39;95701.16;;;15.78
24278;BMP280;12394;42.692;23.314;2022-11-02T06:21:04;95702.88;;;16.35
24278;BMP280;12394;42.692;23.314;2022-11-02T06:23:30;95694.00;;;16.68
24278;BMP280;12394;42.692;23.314;2022-11-02T06:25:57;95712.34;;;17.15
24278;BMP280;12394;42.692;23.314;2022-11-02T06:28:23;95712.09;;;17.45
24278;BMP280;12394;42.692;23.314;2022-11-02T06:30:49;95713.22;;;17.96
24278;BMP280;12394;42.692;23.314;2022-11-02T06:33:15;95711.53;;;18.80
24278;BMP280;12394;42.692;23.314;2022-11-02T06:35:49;95717.50;;;18.84
24278;BMP280;12394;42.692;23.314;2022-11-02T06:38:15;95719.38;;;19.25
24278;BMP280;12394;42.692;23.314;2022-11-02T06:40:41;95709.13;;;19.77
24278;BMP280;12394;42.692;23.314;2022-11-02T06:43:06;95720.69;;;19.96
24278;BMP280;12394;42.692;23.314;2022-11-02T06:45:32;95710.25;;;20.02
24278;BMP280;12394;42.692;23.314;2022-11-02T06:47:57;95710.59;;;20.51
24278;BMP280;12394;42.692;23.314;2022-11-02T06:50:23;95719.16;;;20.89
24278;BMP280;12394;42.692;23.314;2022-11-02T06:52:49;95717.78;;;21.06
24278;BMP280;12394;42.692;23.314;2022-11-02T06:55:16;95715.97;;;21.56
24278;BMP280;12394;42.692;23.314;2022-11-02T06:57:42;95706.41;;;22.26
24278;BMP280;12394;42.692;23.314;2022-11-02T07:00:11;95714.72;;;22.64
24278;BMP280;12394;42.692;23.314;2022-11-02T07:02:38;95707.47;;;22.92
24278;BMP280;12394;42.692;23.314;2022-11-02T07:05:03;95724.44;;;23.22
24278;BMP280;12394;42.692;23.314;2022-11-02T07:07:29;95710.47;;;23.45
24278;BMP280;12394;42.692;23.314;2022-11-02T07:09:54;95713.38;;;23.65
24278;BMP280;12394;42.692;23.314;2022-11-02T07:12:20;95711.91;;;24.21
24278;BMP280;12394;42.692;23.314;2022-11-02T07:14:45;95706.06;;;24.99
24278;BMP280;12394;42.692;23.314;2022-11-02T07:17:10;95707.84;;;25.02
24278;BMP280;12394;42.692;23.314;2022-11-02T07:19:36;95715.22;;;25.51
24278;BMP280;12394;42.692;23.314;2022-11-02T07:22:01;95707.81;;;25.46
24278;BMP280;12394;42.692;23.314;2022-11-02T07:24:27;95708.22;;;25.89
24278;BMP280;12394;42.692;23.314;2022-11-02T07:26:52;95704.72;;;26.38
24278;BMP280;12394;42.692;23.314;2022-11-02T07:29:17;95693.34;;;26.69
24278;BMP280;12394;42.692;23.314;2022-11-02T07:31:44;95707.13;;;27.33
24278;BMP280;12394;42.692;23.314;2022-11-02T07:34:09;95705.38;;;27.56
24278;BMP280;12394;42.692;23.314;2022-11-02T07:36:35;95700.75;;;27.57
24278;BMP280;12394;42.692;23.314;2022-11-02T07:39:00;95704.31;;;27.85
24278;BMP280;12394;42.692;23.314;2022-11-02T07:41:26;95703.84;;;28.29
24278;BMP280;12394;42.692;23.314;2022-11-02T07:43:51;95701.91;;;28.35
24278;BMP280;12394;42.692;23.314;2022-11-02T07:46:17;95698.41;;;28.88
24278;BMP280;12394;42.692;23.314;2022-11-02T07:48:43;95697.66;;;28.99
24278;BMP280;12394;42.692;23.314;2022-11-02T07:51:08;95696.47;;;29.44
24278;BMP280;12394;42.692;23.314;2022-11-02T07:53:35;95701.63;;;29.65
24278;BMP280;12394;42.692;23.314;2022-11-02T07:56:04;95689.91;;;30.36
24278;BMP280;12394;42.692;23.314;2022-11-02T07:58:30;95690.38;;;30.46
24278;BMP280;12394;42.692;23.314;2022-11-02T08:00:57;95691.19;;;31.47
24278;BMP280;12394;42.692;23.314;2022-11-02T08:03:24;95687.81;;;31.11
24278;BMP280;12394;42.692;23.314;2022-11-02T08:05:49;95674.50;;;31.43
24278;BMP280;12394;42.692;23.314;2022-11-02T08:08:19;95677.97;;;31.92
24278;BMP280;12394;42.692;23.314;2022-11-02T08:10:47;95679.97;;;32.91
24278;BMP280;12394;42.692;23.314;2022-11-02T08:13:15;95672.19;;;33.32
24278;BMP280;12394;42.692;23.314;2022-11-02T08:15:41;95676.81;;;33.50
24278;BMP280;12394;42.692;23.314;2022-11-02T08:18:15;95668.59;;;33.56
24278;BMP280;12394;42.692;23.314;2022-11-02T08:20:41;95673.31;;;33.82
24278;BMP280;12394;42.692;23.314;2022-11-02T08:23:08;95666.41;;;34.33
24278;BMP280;12394;42.692;23.314;2022-11-02T08:25:34;95667.66;;;34.79
24278;BMP280;12394;42.692;23.314;2022-11-02T08:28:00;95660.56;;;35.59
24278;BMP280;12394;42.692;23.314;2022-11-02T08:30:27;95661.66;;;35.36
24278;BMP280;12394;42.692;23.314;2022-11-02T08:32:54;95657.47;;;35.35
24278;BMP280;12394;42.692;23.314;2022-11-02T08:35:20;95663.81;;;35.86
24278;BMP280;12394;42.692;23.314;2022-11-02T08:37:53;95656.94;;;36.65
24278;BMP280;12394;42.692;23.314;2022-11-02T08:40:19;95656.81;;;37.01
24278;BMP280;12394;42.692;23.314;2022-11-02T08:42:44;95648.44;;;37.67
24278;BMP280;12394;42.692;23.314;2022-11-02T08:45:10;95650.09;;;37.32
24278;BMP280;12394;42.692;23.314;2022-11-02T08:47:42;95636.09;;;37.58
24278;BMP280;12394;42.692;23.314;2022-11-02T08:50:08;95640.09;;;38.27
24278;BMP280;12394;42.692;23.314;2022-11-02T08:52:37;95632.53;;;37.96
24278;BMP280;12394;42.692;23.314;2022-11-02T08:55:03;95642.66;;;39.47
24278;BMP280;12394;42.692;23.314;2022-11-02T08:57:29;95636.75;;;38.77
24278;BMP280;12394;42.692;23.314;2022-11-02T08:59:55;95635.78;;;38.89
24278;BMP280;12394;42.692;23.314;2022-11-02T09:02:20;95633.72;;;40.16
24278;BMP280;12394;42.692;23.314;2022-11-02T09:04:45;95623.31;;;39.45
24278;BMP280;12394;42.692;23.314;2022-11-02T09:07:11;95615.09;;;39.45
24278;BMP280;12394;42.692;23.314;2022-11-02T09:09:36;95624.28;;;39.16
24278;BMP280;12394;42.692;23.314;2022-11-02T09:12:02;95616.09;;;39.92
24278;BMP280;12394;42.692;23.314;2022-11-02T09:14:27;95622.03;;;39.64
24278;BMP280;12394;42.692;23.314;2022-11-02T09:16:52;95616.72;;;40.00
24278;BMP280;12394;42.692;23.314;2022-11-02T09:19:18;95607.88;;;39.92
24278;BMP280;12394;42.692;23.314;2022-11-02T09:21:43;95611.41;;;40.19
24278;BMP280;12394;42.692;23.314;2022-11-02T09:24:09;95620.34;;;41.00
24278;BMP280;12394;42.692;23.314;2022-11-02T09:26:34;95606.91;;;40.68
24278;BMP280;12394;42.692;23.314;2022-11-02T09:29:00;95599.47;;;39.73
24278;BMP280;12394;42.692;23.314;2022-11-02T09:31:25;95599.47;;;39.55
24278;BMP280;12394;42.692;23.314;2022-11-02T09:33:53;95591.47;;;40.19
24278;BMP280;12394;42.692;23.314;2022-11-02T09:36:18;95596.25;;;40.01
24278;BMP280;12394;42.692;23.314;2022-11-02T09:38:44;95591.88;;;41.61
24278;BMP280;12394;42.692;23.314;2022-11-02T09:41:25;95587.88;;;40.70
24278;BMP280;12394;42.692;23.314;2022-11-02T09:47:09;95566.94;;;42.76
24278;BMP280;12394;42.692;23.314;2022-11-02T09:49:36;95565.09;;;42.69
24278;BMP280;12394;42.692;23.314;2022-11-02T09:52:02;95568.84;;;42.64
24278;BMP280;12394;42.692;23.314;2022-11-02T09:54:44;95565.69;;;41.60
24278;BMP280;12394;42.692;23.314;2022-11-02T09:57:15;95549.66;;;42.45
24278;BMP280;12394;42.692;23.314;2022-11-02T09:59:43;95545.53;;;42.15
24278;BMP280;12394;42.692;23.314;2022-11-02T10:07:42;95548.59;;;41.61
24278;BMP280;12394;42.692;23.314;2022-11-02T10:10:37;95541.25;;;41.64
24278;BMP280;12394;42.692;23.314;2022-11-02T10:16:14;95529.97;;;41.60
24278;BMP280;12394;42.692;23.314;2022-11-02T10:18:42;95530.22;;;41.35
24278;BMP280;12394;42.692;23.314;2022-11-02T10:21:20;95502.91;;;41.37
24278;BMP280;12394;42.692;23.314;2022-11-02T10:23:53;95511.72;;;41.84
24278;BMP280;12394;42.692;23.314;2022-11-02T10:29:28;95517.16;;;42.12
24278;BMP280;12394;42.692;23.314;2022-11-02T10:32:01;95517.94;;;40.71
24278;BMP280;12394;42.692;23.314;2022-11-02T10:34:28;95512.88;;;41.23
24278;BMP280;12394;42.692;23.314;2022-11-02T10:48:01;95480.50;;;40.03
24278;BMP280;12394;42.692;23.314;2022-11-02T10:53:23;95480.78;;;38.77
24278;BMP280;12394;42.692;23.314;2022-11-02T10:58:27;95469.16;;;37.47
24278;BMP280;12394;42.692;23.314;2022-11-02T11:01:11;95472.00;;;37.09
24278;BMP280;12394;42.692;23.314;2022-11-02T11:06:54;95470.06;;;35.90
24278;BMP280;12394;42.692;23.314;2022-11-02T11:12:12;95441.28;;;34.37
24278;BMP280;12394;42.692;23.314;2022-11-02T11:14:56;95436.50;;;33.76
24278;BMP280;12394;42.692;23.314;2022-11-02T11:17:47;95433.47;;;32.80
24278;BMP280;12394;42.692;23.314;2022-11-02T11:20:39;95435.41;;;32.21
24278;BMP280;12394;42.692;23.314;2022-11-02T11:25:34;95435.00;;;31.42
24278;BMP280;12394;42.692;23.314;2022-11-02T11:27:59;95429.84;;;31.01
24278;BMP280;12394;42.692;23.314;2022-11-02T11:32:51;95421.03;;;30.46
24278;BMP280;12394;42.692;23.314;2022-11-02T11:35:18;95396.34;;;30.01
24278;BMP280;12394;42.692;23.314;2022-11-02T11:37:48;95418.25;;;29.92
24278;BMP280;12394;42.692;23.314;2022-11-02T11:40:19;95400.03;;;29.57
24278;BMP280;12394;42.692;23.314;2022-11-02T11:42:48;95411.03;;;29.13
24278;BMP280;12394;42.692;23.314;2022-11-02T11:45:28;95398.34;;;29.02
24278;BMP280;12394;42.692;23.314;2022-11-02T11:50:46;95400.16;;;28.61
24278;BMP280;12394;42.692;23.314;2022-11-02T11:55:48;95392.81;;;28.61
24278;BMP280;12394;42.692;23.314;2022-11-02T12:03:30;95376.69;;;28.17
24278;BMP280;12394;42.692;23.314;2022-11-02T12:08:41;95374.25;;;27.80
24278;BMP280;12394;42.692;23.314;2022-11-02T12:16:22;95366.56;;;27.28
24278;BMP280;12394;42.692;23.314;2022-11-02T12:45:51;95333.03;;;26.53
24278;BMP280;12394;42.692;23.314;2022-11-02T12:51:09;95324.66;;;26.40
24278;BMP280;12394;42.692;23.314;2022-11-02T12:53:49;95331.50;;;26.41
24278;BMP280;12394;42.692;23.314;2022-11-02T12:56:33;95314.91;;;26.37
24278;BMP280;12394;42.692;23.314;2022-11-02T12:59:02;95325.63;;;26.37
24278;BMP280;12394;42.692;23.314;2022-11-02T13:01:35;95320.44;;;26.28
24278;BMP280;12394;42.692;23.314;2022-11-02T13:04:25;95305.09;;;26.29
24278;BMP280;12394;42.692;23.314;2022-11-02T13:07:03;95339.47;;;26.25
24278;BMP280;12394;42.692;23.314;2022-11-02T13:09:34;95333.09;;;26.22
24278;BMP280;12394;42.692;23.314;2022-11-02T13:12:09;95333.69;;;26.06
24278;BMP280;12394;42.692;23.314;2022-11-02T13:14:44;95333.19;;;26.07
24278;BMP280;12394;42.692;23.314;2022-11-02T13:17:34;95326.06;;;25.99
24278;BMP280;12394;42.692;23.314;2022-11-02T13:20:12;95327.50;;;25.94
24278;BMP280;12394;42.692;23.314;2022-11-02T13:22:39;95328.41;;;25.86
24278;BMP280;12394;42.692;23.314;2022-11-02T13:27:51;95323.63;;;25.64
24278;BMP280;12394;42.692;23.314;2022-11-02T13:30:18;95327.78;;;25.65
24278;BMP280;12394;42.692;23.314;2022-11-02T13:35:36;95326.25;;;25.58
24278;BMP280;12394;42.692;23.314;2022-11-02T13:51:42;95333.31;;;25.10
24278;BMP280;12394;42.692;23.314;2022-11-02T13:54:21;95324.22;;;25.02
24278;BMP280;12394;42.692;23.314;2022-11-02T13:56:52;95325.09;;;24.93
24278;BMP280;12394;42.692;23.314;2022-11-02T13:59:22;95327.97;;;24.90
24278;BMP280;12394;42.692;23.314;2022-11-02T14:01:51;95307.53;;;24.72
24278;BMP280;12394;42.692;23.314;2022-11-02T14:04:18;95311.16;;;24.69
24278;BMP280;12394;42.692;23.314;2022-11-02T14:09:34;95325.66;;;24.62
24278;BMP280;12394;42.692;23.314;2022-11-02T14:12:41;95327.88;;;24.64
24278;BMP280;12394;42.692;23.314;2022-11-02T14:20:34;95318.72;;;24.50
24278;BMP280;12394;42.692;23.314;2022-11-02T14:25:53;95320.97;;;24.37
24278;BMP280;12394;42.692;23.314;2022-11-02T14:48:12;95331.75;;;23.64
24278;BMP280;12394;42.692;23.314;2022-11-02T14:50:39;95333.59;;;23.58
24278;BMP280;12394;42.692;23.314;2022-11-02T14:53:07;95321.94;;;23.31
24278;BMP280;12394;42.692;23.314;2022-11-02T14:55:36;95336.97;;;23.29
24278;BMP280;12394;42.692;23.314;2022-11-02T14:58:05;95335.75;;;23.15
24278;BMP280;12394;42.692;23.314;2022-11-02T15:00:38;95341.91;;;23.07
24278;BMP280;12394;42.692;23.314;2022-11-02T15:06:04;95333.69;;;22.72
24278;BMP280;12394;42.692;23.314;2022-11-02T15:08:37;95347.69;;;22.57
24278;BMP280;12394;42.692;23.314;2022-11-02T15:19:43;95355.50;;;22.04
24278;BMP280;12394;42.692;23.314;2022-11-02T15:25:26;95361.03;;;21.73
24278;BMP280;12394;42.692;23.314;2022-11-02T15:27:56;95337.81;;;21.65
24278;BMP280;12394;42.692;23.314;2022-11-02T15:30:22;95354.38;;;21.69
24278;BMP280;12394;42.692;23.314;2022-11-02T15:32:51;95354.72;;;21.53
24278;BMP280;12394;42.692;23.314;2022-11-02T15:35:23;95363.00;;;21.55
24278;BMP280;12394;42.692;23.314;2022-11-02T15:38:00;95342.31;;;21.41
24278;BMP280;12394;42.692;23.314;2022-11-02T15:40:34;95379.00;;;21.37
24278;BMP280;12394;42.692;23.314;2022-11-02T15:43:25;95372.34;;;21.32
24278;BMP280;12394;42.692;23.314;2022-11-02T15:46:01;95376.19;;;21.22
24278;BMP280;12394;42.692;23.314;2022-11-02T15:51:17;95380.00;;;20.94
24278;BMP280;12394;42.692;23.314;2022-11-02T16:02:25;95351.09;;;20.47
24278;BMP280;12394;42.692;23.314;2022-11-02T16:04:57;95376.69;;;20.62
24278;BMP280;12394;42.692;23.314;2022-11-02T16:07:24;95396.00;;;20.54
24278;BMP280;12394;42.692;23.314;2022-11-02T16:09:50;95398.50;;;20.39
24278;BMP280;12394;42.692;23.314;2022-11-02T16:12:22;95400.84;;;20.37
24278;BMP280;12394;42.692;23.314;2022-11-02T16:15:01;95389.72;;;20.29
24278;BMP280;12394;42.692;23.314;2022-11-02T16:17:33;95391.88;;;20.22
24278;BMP280;12394;42.692;23.314;2022-11-02T16:20:19;95406.78;;;20.19
24278;BMP280;12394;42.692;23.314;2022-11-02T16:22:56;95408.19;;;20.02
24278;BMP280;12394;42.692;23.314;2022-11-02T16:25:34;95410.66;;;19.96
24278;BMP280;12394;42.692;23.314;2022-11-02T16:28:15;95407.78;;;19.82
24278;BMP280;12394;42.692;23.314;2022-11-02T16:30:42;95399.47;;;19.71
24278;BMP280;12394;42.692;23.314;2022-11-02T16:33:10;95399.50;;;19.58
24278;BMP280;12394;42.692;23.314;2022-11-02T16:35:36;95417.53;;;19.63
24278;BMP280;12394;42.692;23.314;2022-11-02T16:38:02;95412.47;;;19.56
24278;BMP280;12394;42.692;23.314;2022-11-02T16:40:31;95404.44;;;19.47
24278;BMP280;12394;42.692;23.314;2022-11-02T16:42:56;95418.66;;;19.53
24278;BMP280;12394;42.692;23.314;2022-11-02T16:45:34;95428.13;;;19.41
24278;BMP280;12394;42.692;23.314;2022-11-02T16:48:01;95427.09;;;19.26
24278;BMP280;12394;42.692;23.314;2022-11-02T16:50:29;95425.72;;;19.22
24278;BMP280;12394;42.692;23.314;2022-11-02T16:52:59;95418.44;;;19.13
24278;BMP280;12394;42.692;23.314;2022-11-02T16:55:42;95431.16;;;19.18
24278;BMP280;12394;42.692;23.314;2022-11-02T16:58:13;95426.72;;;19.15
24278;BMP280;12394;42.692;23.314;2022-11-02T17:00:54;95433.41;;;19.20
24278;BMP280;12394;42.692;23.314;2022-11-02T17:03:24;95433.81;;;19.18
24278;BMP280;12394;42.692;23.314;2022-11-02T17:05:50;95443.13;;;19.23
24278;BMP280;12394;42.692;23.314;2022-11-02T17:08:37;95441.97;;;19.24
24278;BMP280;12394;42.692;23.314;2022-11-02T17:11:05;95439.81;;;19.31
24278;BMP280;12394;42.692;23.314;2022-11-02T17:13:35;95437.72;;;19.26
24278;BMP280;12394;42.692;23.314;2022-11-02T17:16:08;95451.72;;;19.27
24278;BMP280;12394;42.692;23.314;2022-11-02T17:18:34;95433.59;;;19.13
24278;BMP280;12394;42.692;23.314;2022-11-02T17:21:32;95443.69;;;19.18
24278;BMP280;12394;42.692;23.314;2022-11-02T17:23:58;95443.06;;;19.14
24278;BMP280;12394;42.692;23.314;2022-11-02T17:26:35;95444.88;;;19.17
24278;BMP280;12394;42.692;23.314;2022-11-02T17:31:55;95453.47;;;19.08
24278;BMP280;12394;42.692;23.314;2022-11-02T17:34:21;95458.75;;;19.08